Time;durP1;ratioP1;P1;durP2;ratioP2;P2;SDS_P1;SDS_P2;PMS_P1;PMS_P2;Temp;Humidity;BMP_temperature;BMP_pressure;BME280_temperature;BME280_humidity;BME280_pressure;Samples;Min_cycle;Max_cycle;Signal;HPM_P1;HPM_P2
2022/05/08 00:00:28;;;;;;;28.77;18.03;;;9.80;99.90;;;;;;5054730;28;20724;-52
2022/05/08 00:02:55;;;;;;;27.53;16.90;;;9.70;99.90;;;;;;5055226;28;20209;-54
2022/05/08 00:05:22;;;;;;;27.47;17.87;;;9.70;99.90;;;;;;5054959;28;20229;-54
2022/05/08 00:07:47;;;;;;;27.10;17.83;;;9.70;99.90;;;;;;5055109;28;20176;-52
2022/05/08 00:10:13;;;;;;;30.40;18.50;;;9.60;99.90;;;;;;5054905;28;20278;-54
2022/05/08 00:12:39;;;;;;;30.43;18.00;;;9.50;99.90;;;;;;5054928;28;20631;-55
2022/05/08 00:15:05;;;;;;;31.40;18.50;;;9.50;99.90;;;;;;5055083;28;20199;-52
2022/05/08 00:17:34;;;;;;;24.93;16.57;;;9.50;99.90;;;;;;5054737;28;20686;-49
2022/05/08 00:20:02;;;;;;;28.57;17.50;;;9.50;99.90;;;;;;5054761;28;20220;-53
2022/05/08 00:22:27;;;;;;;29.90;17.77;;;9.50;99.90;;;;;;5054447;28;20226;-54
2022/05/08 00:24:53;;;;;;;29.37;17.10;;;9.50;99.90;;;;;;5053253;28;20188;-49
2022/05/08 00:27:19;;;;;;;30.43;17.97;;;9.50;99.90;;;;;;5054747;28;20703;-53
2022/05/08 00:29:45;;;;;;;29.73;18.07;;;9.60;99.90;;;;;;5054714;28;20251;-52
2022/05/08 00:32:11;;;;;;;28.80;17.03;;;9.60;99.90;;;;;;5054420;28;20197;-55
2022/05/08 00:34:36;;;;;;;29.77;16.93;;;9.60;99.90;;;;;;5054400;28;20208;-54
2022/05/08 00:37:03;;;;;;;27.93;16.53;;;9.60;99.90;;;;;;5054340;28;20195;-55
2022/05/08 00:39:29;;;;;;;26.57;16.50;;;9.60;99.90;;;;;;5053010;28;20608;-55
2022/05/08 00:41:54;;;;;;;38.50;18.43;;;9.60;99.90;;;;;;5054415;28;20185;-53
2022/05/08 00:44:20;;;;;;;27.10;17.43;;;9.70;99.90;;;;;;5052526;28;20217;-52
2022/05/08 00:46:48;;;;;;;29.53;19.00;;;9.70;99.90;;;;;;5054314;28;20652;-53
2022/05/08 00:49:14;;;;;;;29.30;17.97;;;9.80;99.90;;;;;;5054268;28;20272;-51
2022/05/08 00:51:40;;;;;;;30.17;18.60;;;9.80;99.90;;;;;;5054221;28;20238;-56
2022/05/08 00:54:08;;;;;;;30.73;19.03;;;9.80;99.90;;;;;;5053993;28;20184;-54
2022/05/08 00:56:33;;;;;;;31.13;18.40;;;9.90;99.90;;;;;;5053899;28;20275;-49
2022/05/08 00:59:00;;;;;;;38.83;18.93;;;9.90;99.90;;;;;;5053348;28;20599;-49
2022/05/08 01:01:25;;;;;;;35.37;18.87;;;9.80;99.90;;;;;;5054026;28;20183;-57
2022/05/08 01:03:51;;;;;;;37.67;18.87;;;9.70;99.90;;;;;;5054105;28;20212;-51
2022/05/08 01:06:19;;;;;;;32.30;17.93;;;9.70;99.90;;;;;;5053809;28;20192;-54
2022/05/08 01:08:47;;;;;;;31.40;18.97;;;9.60;99.90;;;;;;5054240;28;20195;-51
2022/05/08 01:11:13;;;;;;;35.17;20.17;;;9.50;99.90;;;;;;5053760;28;20171;-53
2022/05/08 01:13:41;;;;;;;31.03;19.30;;;9.40;99.90;;;;;;5053705;28;20485;-53
2022/05/08 01:16:12;;;;;;;29.63;17.63;;;9.40;99.90;;;;;;5053770;28;20181;-49
2022/05/08 01:18:38;;;;;;;29.00;18.33;;;9.40;99.90;;;;;;5053701;28;20170;-55
2022/05/08 01:21:07;;;;;;;30.63;19.00;;;9.40;99.90;;;;;;5053766;28;20198;-53
2022/05/08 01:23:33;;;;;;;31.73;20.83;;;9.30;99.90;;;;;;5053328;28;20234;-53
2022/05/08 01:25:58;;;;;;;33.03;19.23;;;9.30;99.90;;;;;;5053826;28;20331;-53
2022/05/08 01:28:25;;;;;;;39.63;19.77;;;9.20;99.90;;;;;;5053353;28;20182;-53
2022/05/08 01:30:52;;;;;;;29.17;18.77;;;9.20;99.90;;;;;;5053487;28;20187;-54
2022/05/08 01:33:19;;;;;;;32.67;19.93;;;9.20;99.90;;;;;;5053258;28;20238;-50
2022/05/08 01:35:45;;;;;;;31.80;19.67;;;9.20;99.90;;;;;;5052937;28;20229;-54
2022/05/08 01:38:13;;;;;;;32.10;18.53;;;9.10;99.90;;;;;;5053136;28;20543;-53
2022/05/08 01:40:39;;;;;;;31.90;19.53;;;9.00;99.90;;;;;;5052979;28;20182;-52
2022/05/08 01:43:06;;;;;;;31.80;19.17;;;9.00;99.90;;;;;;5051816;28;20346;-53
2022/05/08 01:45:31;;;;;;;32.53;19.47;;;8.90;99.90;;;;;;5053124;28;20204;-52
2022/05/08 01:50:42;;;;;;;30.00;19.07;;;8.90;99.90;;;;;;5053162;28;20659;-51
2022/05/08 01:53:08;;;;;;;36.47;19.90;;;9.00;99.90;;;;;;5053235;28;20640;-56
2022/05/08 01:55:35;;;;;;;30.40;19.53;;;9.00;99.90;;;;;;5052911;28;20203;-53
2022/05/08 01:58:01;;;;;;;33.47;19.93;;;9.00;99.90;;;;;;5052627;28;20507;-50
2022/05/08 02:00:28;;;;;;;33.50;19.90;;;9.00;99.90;;;;;;5052747;28;20185;-52
2022/05/08 02:02:57;;;;;;;29.83;19.13;;;9.00;99.90;;;;;;5053048;28;20217;-48
2022/05/08 02:05:23;;;;;;;32.30;19.23;;;8.90;99.90;;;;;;5052663;28;20183;-50
2022/05/08 02:07:49;;;;;;;32.60;18.67;;;8.90;99.90;;;;;;5052846;28;20239;-54
2022/05/08 02:10:17;;;;;;;33.50;18.37;;;8.80;99.90;;;;;;5052480;28;20221;-53
2022/05/08 02:12:44;;;;;;;37.87;20.80;;;8.80;99.90;;;;;;5052258;28;20244;-53
2022/05/08 02:15:11;;;;;;;33.80;19.33;;;8.70;99.90;;;;;;5052713;28;20264;-49
2022/05/08 02:17:38;;;;;;;33.77;20.17;;;8.70;99.90;;;;;;5052426;28;20182;-49
2022/05/08 02:20:06;;;;;;;35.53;20.77;;;8.70;99.90;;;;;;5052568;28;20273;-48
2022/05/08 02:22:39;;;;;;;35.40;20.63;;;8.70;99.90;;;;;;5052137;28;20230;-50
2022/05/08 02:25:07;;;;;;;35.80;19.57;;;8.70;99.90;;;;;;5052598;28;20183;-53
2022/05/08 02:27:41;;;;;;;41.40;21.70;;;8.70;99.90;;;;;;5052141;28;20190;-52
2022/05/08 02:30:09;;;;;;;35.10;20.90;;;8.70;99.90;;;;;;5052229;28;20533;-58
2022/05/08 02:32:35;;;;;;;35.37;21.60;;;8.70;99.90;;;;;;5052374;28;20195;-53
2022/05/08 02:35:01;;;;;;;35.33;21.30;;;8.70;99.90;;;;;;5052494;28;20186;-52
2022/05/08 02:37:27;;;;;;;41.13;22.77;;;8.70;99.90;;;;;;5052233;28;20186;-54
2022/05/08 02:39:54;;;;;;;41.83;22.53;;;8.60;99.90;;;;;;5052527;28;20193;-51
2022/05/08 02:42:19;;;;;;;36.73;21.47;;;8.60;99.90;;;;;;5052186;28;20249;-56
2022/05/08 02:44:45;;;;;;;35.63;20.90;;;8.60;99.90;;;;;;5052189;28;20202;-51
2022/05/08 02:47:11;;;;;;;40.07;21.33;;;8.50;99.90;;;;;;5051880;28;20537;-53
2022/05/08 02:49:36;;;;;;;33.77;20.30;;;8.50;99.90;;;;;;5052139;28;20182;-50
2022/05/08 02:52:03;;;;;;;39.27;22.43;;;8.50;99.90;;;;;;5052104;28;20175;-52
2022/05/08 02:54:28;;;;;;;37.13;21.13;;;8.40;99.90;;;;;;5051792;28;20174;-53
2022/05/08 02:59:38;;;;;;;37.93;22.73;;;8.50;99.90;;;;;;5051546;28;20201;-55
2022/05/08 03:02:04;;;;;;;38.40;22.67;;;8.50;99.90;;;;;;5051786;28;20592;-53
2022/05/08 03:04:30;;;;;;;41.00;22.97;;;8.50;99.90;;;;;;5051658;28;20183;-55
2022/05/08 03:06:55;;;;;;;37.90;21.87;;;8.50;99.90;;;;;;5051609;28;20548;-56
2022/05/08 03:09:21;;;;;;;33.37;20.83;;;8.50;99.90;;;;;;5051743;28;20189;-53
2022/05/08 03:11:47;;;;;;;35.33;21.67;;;8.50;99.90;;;;;;5051495;28;20585;-51
2022/05/08 03:14:13;;;;;;;34.37;19.60;;;8.50;99.90;;;;;;5051614;28;20178;-52
2022/05/08 03:16:39;;;;;;;29.87;18.93;;;8.50;99.90;;;;;;5051613;28;20648;-50
2022/05/08 03:19:05;;;;;;;30.23;17.93;;;8.50;99.90;;;;;;5051572;28;20210;-55
2022/05/08 03:21:30;;;;;;;33.07;17.93;;;8.50;99.90;;;;;;5032818;28;20198;-52
2022/05/08 03:23:56;;;;;;;32.63;17.83;;;8.50;99.90;;;;;;5051246;28;20237;-53
2022/05/08 03:26:24;;;;;;;28.87;16.40;;;8.50;99.90;;;;;;5050329;28;20272;-53
2022/05/08 03:28:50;;;;;;;25.60;16.70;;;8.50;99.90;;;;;;5051070;28;20197;-52
2022/05/08 03:31:15;;;;;;;28.93;17.33;;;8.40;99.90;;;;;;5051469;28;20187;-54
2022/05/08 03:33:42;;;;;;;29.67;17.20;;;8.40;99.90;;;;;;5049788;28;20186;-56
2022/05/08 03:36:10;;;;;;;29.97;16.93;;;8.40;99.90;;;;;;5051239;28;20186;-52
2022/05/08 03:38:40;;;;;;;31.87;15.93;;;8.50;99.90;;;;;;5050960;28;20667;-54
2022/05/08 03:41:08;;;;;;;30.37;16.97;;;8.60;99.90;;;;;;5050066;28;20239;-50
2022/05/08 03:43:34;;;;;;;27.93;15.87;;;8.60;99.90;;;;;;5051052;28;20652;-54
2022/05/08 03:46:00;;;;;;;26.63;16.60;;;8.60;99.90;;;;;;5051463;28;20186;-54
2022/05/08 03:48:26;;;;;;;24.83;14.70;;;8.60;99.90;;;;;;5051406;28;20642;-52
2022/05/08 03:50:52;;;;;;;29.53;15.60;;;8.60;99.90;;;;;;5051524;28;20186;-54
2022/05/08 03:53:17;;;;;;;31.03;17.43;;;8.60;99.90;;;;;;5051316;28;20468;-53
2022/05/08 03:55:43;;;;;;;25.73;15.30;;;8.70;99.90;;;;;;5051238;28;20210;-54
2022/05/08 03:58:09;;;;;;;28.37;15.77;;;8.70;99.90;;;;;;5049796;28;20190;-54
2022/05/08 04:00:34;;;;;;;28.60;16.07;;;8.60;99.90;;;;;;5051222;28;20175;-52
2022/05/08 04:03:00;;;;;;;31.93;16.17;;;8.60;99.90;;;;;;5049680;28;20221;-48
2022/05/08 04:05:27;;;;;;;30.93;15.90;;;8.60;99.90;;;;;;5050832;28;20201;-50
2022/05/08 04:07:53;;;;;;;27.90;16.00;;;8.60;99.90;;;;;;5051338;28;20179;-56
2022/05/08 04:10:19;;;;;;;25.47;15.43;;;8.60;99.90;;;;;;5050848;28;20186;-55
2022/05/08 04:12:47;;;;;;;33.80;16.10;;;8.60;99.90;;;;;;5049912;28;20213;-54
2022/05/08 04:17:57;;;;;;;29.23;15.87;;;8.60;99.90;;;;;;5051178;28;20170;-52
2022/05/08 04:20:23;;;;;;;28.03;15.27;;;8.70;99.90;;;;;;5051362;28;20584;-56
2022/05/08 04:25:33;;;;;;;26.90;14.57;;;8.90;99.90;;;;;;5051337;28;20252;-54
2022/05/08 04:27:59;;;;;;;22.97;13.73;;;8.90;99.90;;;;;;5051135;28;20276;-51
2022/05/08 04:30:24;;;;;;;26.17;13.93;;;8.90;99.90;;;;;;5050762;28;20641;-52
2022/05/08 04:32:50;;;;;;;24.50;13.30;;;8.90;99.90;;;;;;5050729;28;20203;-54
2022/05/08 04:35:16;;;;;;;26.47;14.80;;;8.90;99.90;;;;;;5053691;28;20221;-52
2022/05/08 04:37:41;;;;;;;24.30;14.50;;;8.90;99.90;;;;;;5054713;28;20183;-54
2022/05/08 04:40:08;;;;;;;26.97;13.97;;;9.00;99.90;;;;;;5054654;28;20206;-53
2022/05/08 04:42:33;;;;;;;30.67;14.63;;;9.10;99.90;;;;;;5054336;28;20238;-54
2022/05/08 04:44:59;;;;;;;22.20;14.43;;;9.10;99.90;;;;;;5054209;28;20242;-56
2022/05/08 04:47:28;;;;;;;24.40;14.13;;;9.10;99.90;;;;;;5052985;28;20637;-51
2022/05/08 04:49:54;;;;;;;26.50;13.97;;;9.20;99.90;;;;;;5054625;28;20225;-54
2022/05/08 04:52:20;;;;;;;25.13;15.43;;;9.30;99.90;;;;;;5054099;28;20226;-54
2022/05/08 04:54:45;;;;;;;26.70;14.70;;;9.40;99.90;;;;;;5054158;28;20642;-53
2022/05/08 04:57:11;;;;;;;26.63;14.77;;;9.50;99.90;;;;;;5053926;28;20187;-54
2022/05/08 04:59:37;;;;;;;28.57;15.70;;;9.60;99.90;;;;;;5054003;28;20189;-53
2022/05/08 05:02:03;;;;;;;28.77;14.67;;;9.70;99.90;;;;;;5053824;28;20181;-54
2022/05/08 05:04:29;;;;;;;34.40;19.03;;;9.80;99.90;;;;;;5053752;28;20193;-50
2022/05/08 05:06:55;;;;;;;37.03;19.10;;;9.90;99.90;;;;;;5053880;28;20188;-53
2022/05/08 05:09:21;;;;;;;41.40;20.97;;;9.90;99.90;;;;;;5053541;28;20631;-50
2022/05/08 05:11:47;;;;;;;35.27;19.10;;;10.00;99.90;;;;;;5053705;28;20275;-54
2022/05/08 05:14:13;;;;;;;35.43;20.47;;;10.00;99.90;;;;;;5053565;28;20210;-50
2022/05/08 05:16:38;;;;;;;37.50;19.87;;;10.10;99.90;;;;;;5053822;28;20672;-54
2022/05/08 05:19:04;;;;;;;30.00;17.77;;;10.20;99.90;;;;;;5052525;28;20270;-50
2022/05/08 05:21:31;;;;;;;31.77;18.60;;;10.30;99.90;;;;;;5053814;28;20726;-54
2022/05/08 05:23:56;;;;;;;30.47;17.20;;;10.40;99.90;;;;;;5053504;28;20250;-52
2022/05/08 05:26:23;;;;;;;31.70;18.23;;;10.50;99.90;;;;;;5053481;28;20174;-55
2022/05/08 05:28:48;;;;;;;27.17;17.40;;;10.70;99.90;;;;;;5053953;28;20185;-53
2022/05/08 05:31:15;;;;;;;31.13;20.10;;;10.90;99.90;;;;;;5053261;28;20198;-52
2022/05/08 05:33:40;;;;;;;26.00;17.60;;;11.10;99.90;;;;;;5051967;28;20640;-52
2022/05/08 05:36:06;;;;;;;25.97;15.83;;;11.30;99.90;;;;;;5053080;28;20370;-54
2022/05/08 05:38:32;;;;;;;24.13;16.60;;;11.50;99.90;;;;;;5051161;28;20211;-54
2022/05/08 05:40:58;;;;;;;27.73;17.03;;;11.60;99.90;;;;;;5051866;28;20493;-54
2022/05/08 05:43:24;;;;;;;26.80;18.33;;;11.70;99.90;;;;;;5052522;28;20264;-53
2022/05/08 05:47:49;;;;;;;26.17;16.10;;;11.80;99.90;;;;;;5034846;28;20191;-50
2022/05/08 05:48:37;;;;;;;22.63;15.40;;;12.00;99.90;;;;;;5052655;28;20174;-55
2022/05/08 05:51:03;;;;;;;24.83;15.13;;;12.10;99.90;;;;;;5053244;28;20188;-49
2022/05/08 05:53:29;;;;;;;23.17;13.43;;;12.30;99.90;;;;;;5052551;28;20656;-51
2022/05/08 05:55:57;;;;;;;27.53;13.13;;;12.40;99.90;;;;;;5052650;28;20181;-54
2022/05/08 05:58:23;;;;;;;20.40;12.33;;;12.50;99.90;;;;;;5052659;28;20184;-52
2022/05/08 06:00:49;;;;;;;20.07;12.57;;;12.60;99.90;;;;;;5053060;28;20190;-54
2022/05/08 06:03:15;;;;;;;18.80;12.27;;;12.70;99.90;;;;;;5034445;28;20239;-54
2022/05/08 06:05:41;;;;;;;19.67;12.60;;;12.70;99.90;;;;;;5052821;28;20506;-52
2022/05/08 06:08:07;;;;;;;18.63;12.57;;;12.80;99.90;;;;;;5052529;28;20199;-53
2022/05/08 06:10:33;;;;;;;19.67;13.47;;;12.90;99.90;;;;;;5052430;28;21117;-54
2022/05/08 06:12:58;;;;;;;23.03;13.73;;;12.80;99.90;;;;;;5051423;28;20220;-55
2022/05/08 06:15:25;;;;;;;18.53;13.97;;;13.00;99.90;;;;;;5052058;28;20621;-49
2022/05/08 06:17:50;;;;;;;27.63;16.77;;;13.10;99.90;;;;;;5034104;28;20202;-52
2022/05/08 06:20:16;;;;;;;22.83;15.17;;;13.30;99.90;;;;;;5051820;28;20193;-49
2022/05/08 06:22:42;;;;;;;21.63;13.73;;;13.50;99.90;;;;;;5052110;28;20244;-54
2022/05/08 06:25:08;;;;;;;22.97;13.27;;;13.60;99.90;;;;;;5052613;28;20256;-51
2022/05/08 06:27:34;;;;;;;19.00;12.43;;;13.70;99.90;;;;;;5052063;28;20189;-49
2022/05/08 06:30:00;;;;;;;21.40;12.70;;;13.90;99.90;;;;;;5052681;28;20182;-49
2022/05/08 06:32:26;;;;;;;19.13;11.83;;;13.90;99.90;;;;;;5050536;28;20179;-51
2022/05/08 06:34:52;;;;;;;21.00;12.57;;;13.90;99.90;;;;;;5034010;28;20190;-52
2022/05/08 06:37:18;;;;;;;20.77;12.60;;;14.10;99.90;;;;;;5051872;28;20259;-51
2022/05/08 06:39:43;;;;;;;25.23;14.20;;;14.10;99.90;;;;;;5052116;28;20212;-53
2022/05/08 06:42:09;;;;;;;19.73;12.90;;;14.30;99.90;;;;;;5050309;28;20259;-52
2022/05/08 06:44:35;;;;;;;23.47;14.10;;;14.40;99.90;;;;;;5051733;28;20186;-52
2022/05/08 06:47:01;;;;;;;28.80;14.00;;;14.40;99.90;;;;;;5051737;28;20182;-51
2022/05/08 06:49:27;;;;;;;21.97;14.80;;;14.40;99.90;;;;;;5051096;28;20213;-51
2022/05/08 06:51:53;;;;;;;18.87;13.10;;;14.40;99.90;;;;;;5052124;28;20689;-53
2022/05/08 06:54:19;;;;;;;24.13;13.70;;;14.50;99.90;;;;;;5052832;28;20341;-55
2022/05/08 06:56:45;;;;;;;21.57;13.50;;;14.40;99.90;;;;;;5049549;28;20228;-53
2022/05/08 07:01:56;;;;;;;21.90;11.77;;;14.70;99.90;;;;;;5051804;28;20173;-53
2022/05/08 07:04:21;;;;;;;19.83;11.67;;;14.80;99.90;;;;;;5050925;28;20576;-50
2022/05/08 07:06:47;;;;;;;20.83;12.33;;;14.90;99.90;;;;;;5050159;28;20530;-50
2022/05/08 07:09:13;;;;;;;17.63;10.67;;;15.00;99.90;;;;;;5051284;28;20244;-51
2022/05/08 07:11:41;;;;;;;28.80;16.50;;;15.00;99.90;;;;;;5050754;28;20672;-53
2022/05/08 07:14:07;;;;;;;22.97;14.23;;;15.20;99.90;;;;;;5050595;28;20662;-49
2022/05/08 07:16:32;;;;;;;22.03;13.50;;;15.30;99.90;;;;;;5050319;28;20187;-52
2022/05/08 07:18:59;;;;;;;22.20;13.63;;;15.40;99.90;;;;;;5050795;28;20179;-52
2022/05/08 07:21:25;;;;;;;24.17;14.13;;;15.50;99.90;;;;;;5050682;28;20957;-50
2022/05/08 07:23:50;;;;;;;28.53;14.60;;;15.60;99.90;;;;;;5050697;28;20299;-50
2022/05/08 07:26:16;;;;;;;32.27;16.10;;;15.70;99.90;;;;;;5050967;28;20184;-51
2022/05/08 07:28:42;;;;;;;27.70;14.87;;;15.70;99.90;;;;;;5050715;28;20532;-60
2022/05/08 07:31:08;;;;;;;25.23;14.60;;;15.80;99.90;;;;;;5051026;28;20186;-58
2022/05/08 07:33:37;;;;;;;24.10;16.03;;;15.90;99.90;;;;;;5050758;28;20515;-58
2022/05/08 07:36:13;;;;;;;22.70;14.60;;;15.90;99.90;;;;;;5046981;28;20177;-58
2022/05/08 07:38:48;;;;;;;24.33;14.77;;;16.00;99.90;;;;;;5051332;28;20247;-59
2022/05/08 07:41:16;;;;;;;26.63;16.03;;;16.20;99.90;;;;;;5050090;28;20226;-59
2022/05/08 07:43:45;;;;;;;36.40;17.83;;;16.30;99.90;;;;;;5051245;28;20198;-58
2022/05/08 07:46:12;;;;;;;28.90;15.20;;;16.40;99.90;;;;;;5051509;28;20189;-58
2022/05/08 07:48:37;;;;;;;28.93;16.50;;;16.50;99.90;;;;;;5050759;28;20542;-57
2022/05/08 07:51:03;;;;;;;38.80;16.60;;;16.60;99.90;;;;;;5050713;28;20190;-56
2022/05/08 07:53:31;;;;;;;28.97;16.27;;;16.60;99.90;;;;;;5050552;28;20247;-64
2022/05/08 07:55:57;;;;;;;21.97;14.43;;;16.70;99.90;;;;;;5050609;28;20281;-59
2022/05/08 07:58:24;;;;;;;24.20;15.00;;;16.80;99.90;;;;;;5049715;28;20222;-60
2022/05/08 08:00:53;;;;;;;27.53;15.63;;;16.80;99.90;;;;;;5046822;28;20288;-57
2022/05/08 08:03:20;;;;;;;34.90;15.00;;;16.80;99.90;;;;;;5049510;28;20221;-56
2022/05/08 08:05:46;;;;;;;20.03;13.47;;;16.90;99.90;;;;;;5050336;28;20281;-56
2022/05/08 08:08:12;;;;;;;31.53;15.87;;;17.00;99.90;;;;;;5051690;28;20587;-58
2022/05/08 08:10:38;;;;;;;24.90;13.90;;;16.90;99.90;;;;;;5054265;28;20248;-59
2022/05/08 08:13:04;;;;;;;29.07;14.30;;;16.90;99.90;;;;;;5054380;28;20190;-59
2022/05/08 08:15:30;;;;;;;22.03;12.87;;;17.00;99.90;;;;;;5052974;28;20599;-55
2022/05/08 08:17:55;;;;;;;25.03;12.27;;;17.00;99.90;;;;;;5052373;28;20182;-56
2022/05/08 08:20:21;;;;;;;19.63;11.37;;;17.20;99.90;;;;;;5051831;28;20186;-58
2022/05/08 08:22:47;;;;;;;26.43;11.53;;;17.40;99.90;;;;;;5051928;28;20355;-57
2022/05/08 08:25:13;;;;;;;25.33;10.67;;;17.60;99.90;;;;;;5052418;28;20222;-58
2022/05/08 08:27:38;;;;;;;20.97;11.30;;;17.70;99.90;;;;;;5051305;28;20174;-59
2022/05/08 08:30:05;;;;;;;25.80;15.67;;;17.50;99.90;;;;;;5052369;28;20520;-56
2022/05/08 08:32:31;;;;;;;16.57;10.57;;;17.50;99.90;;;;;;5052368;28;20197;-57
2022/05/08 08:34:57;;;;;;;17.00;10.03;;;17.50;99.90;;;;;;5053587;28;20234;-55
2022/05/08 08:37:23;;;;;;;25.90;9.27;;;17.50;99.90;;;;;;5052349;28;20182;-57
2022/05/08 08:39:49;;;;;;;15.60;9.00;;;17.60;99.90;;;;;;5052002;28;20190;-55
2022/05/08 08:42:28;;;;;;;12.03;8.50;;;17.60;99.90;;;;;;5052859;28;20508;-56
2022/05/08 08:48:05;;;;;;;18.03;10.27;;;17.90;99.90;;;;;;5045678;28;20244;-54
2022/05/08 08:50:32;;;;;;;21.13;9.43;;;17.90;99.90;;;;;;5052423;28;20746;-53
2022/05/08 08:53:01;;;;;;;14.63;8.40;;;17.90;99.90;;;;;;5051662;28;20189;-56
2022/05/08 08:55:27;;;;;;;16.07;8.73;;;17.90;99.90;;;;;;5053317;28;20221;-55
2022/05/08 08:57:53;;;;;;;15.43;8.40;;;17.90;99.80;;;;;;5052986;28;20573;-58
2022/05/08 09:00:21;;;;;;;19.63;9.37;;;17.90;99.90;;;;;;5053043;28;20233;-59
2022/05/08 09:02:47;;;;;;;14.37;8.23;;;18.00;99.90;;;;;;5053312;28;20611;-57
2022/05/08 09:05:13;;;;;;;24.27;10.00;;;18.20;99.60;;;;;;5052705;28;20214;-58
2022/05/08 09:07:50;;;;;;;16.43;7.50;;;18.20;99.70;;;;;;5052096;28;20190;-56
2022/05/08 09:10:17;;;;;;;17.07;8.67;;;18.30;98.90;;;;;;5052364;28;20268;-56
2022/05/08 09:12:45;;;;;;;17.43;8.53;;;18.50;98.20;;;;;;5052798;28;20182;-56
2022/05/08 09:15:26;;;;;;;20.47;8.50;;;18.60;98.10;;;;;;5053046;28;20178;-54
2022/05/08 09:17:57;;;;;;;19.23;7.87;;;18.50;97.50;;;;;;5050566;28;20596;-62
2022/05/08 09:20:27;;;;;;;29.67;11.07;;;18.40;97.60;;;;;;5051246;28;20212;-59
2022/05/08 09:23:09;;;;;;;13.47;7.40;;;18.60;97.40;;;;;;5052197;28;20702;-58
2022/05/08 09:25:56;;;;;;;20.40;8.20;;;18.90;96.20;;;;;;5052243;28;20586;-60
2022/05/08 09:28:30;;;;;;;21.03;7.70;;;19.10;95.30;;;;;;5052723;28;20232;-58
2022/05/08 09:31:02;;;;;;;17.90;7.63;;;19.00;95.70;;;;;;5052593;28;20243;-58
2022/05/08 09:33:29;;;;;;;19.45;7.70;;;19.20;96.70;;;;;;5052433;28;20194;-60
2022/05/08 09:35:56;;;;;;;20.67;8.70;;;19.50;95.00;;;;;;5052607;28;20254;-59
2022/05/08 09:38:22;;;;;;;20.73;7.80;;;19.60;94.30;;;;;;5052453;28;20201;-57
2022/05/08 09:41:06;;;;;;;16.23;7.20;;;19.70;93.70;;;;;;5052417;28;20183;-58
2022/05/08 09:43:34;;;;;;;14.93;7.53;;;19.60;92.90;;;;;;5052059;28;20335;-58
2022/05/08 09:46:01;;;;;;;14.77;6.90;;;19.80;92.60;;;;;;5052629;28;20282;-58
2022/05/08 09:48:28;;;;;;;13.07;7.15;;;19.80;90.40;;;;;;5052061;28;20201;-59
2022/05/08 09:50:59;;;;;;;13.55;6.68;;;19.70;90.30;;;;;;5052622;28;20274;-62
2022/05/08 09:53:26;;;;;;;15.70;7.38;;;19.70;90.00;;;;;;5052190;28;20206;-60
2022/05/08 09:55:56;;;;;;;16.02;7.18;;;19.80;87.40;;;;;;5052623;28;20178;-59
2022/05/08 09:58:22;;;;;;;15.87;7.07;;;19.90;88.60;;;;;;5052135;28;20654;-59
2022/05/08 10:00:51;;;;;;;14.63;6.53;;;19.90;88.90;;;;;;5051754;28;20265;-58
2022/05/08 10:03:17;;;;;;;13.82;7.35;;;20.10;86.20;;;;;;5052581;28;20304;-59
2022/05/08 10:05:44;;;;;;;13.02;7.13;;;20.00;85.10;;;;;;5051476;28;20284;-55
2022/05/08 10:08:14;;;;;;;10.35;6.18;;;20.10;82.60;;;;;;5051892;28;20263;-54
2022/05/08 10:13:53;;;;;;;14.27;7.20;;;20.20;83.10;;;;;;5046234;28;20248;-57
2022/05/08 10:16:56;;;;;;;13.13;7.28;;;20.50;81.20;;;;;;5051730;28;20174;-56
2022/05/08 10:19:27;;;;;;;19.17;7.28;;;20.70;80.70;;;;;;5050316;28;20186;-53
2022/05/08 10:21:56;;;;;;;12.23;6.53;;;20.70;77.50;;;;;;5050173;28;20197;-55
2022/05/08 10:24:38;;;;;;;9.70;6.22;;;20.60;75.80;;;;;;5049615;28;20317;-54
2022/05/08 10:27:28;;;;;;;18.50;7.25;;;20.50;79.60;;;;;;5049875;28;20269;-54
2022/05/08 10:29:54;;;;;;;11.90;7.22;;;20.50;80.70;;;;;;5042628;28;20182;-58
2022/05/08 10:32:35;;;;;;;18.45;7.13;;;20.70;84.40;;;;;;5048120;28;20623;-57
2022/05/08 10:35:12;;;;;;;16.40;7.80;;;21.10;84.20;;;;;;5049158;28;20509;-54
2022/05/08 10:37:42;;;;;;;13.02;6.32;;;21.40;81.80;;;;;;5048033;28;20239;-56
2022/05/08 10:40:23;;;;;;;9.38;5.70;;;21.50;79.60;;;;;;5050613;28;20557;-54
2022/05/08 10:42:50;;;;;;;12.25;6.28;;;21.60;80.20;;;;;;5050392;28;20221;-55
2022/05/08 10:45:31;;;;;;;18.00;7.35;;;21.70;77.50;;;;;;5049227;28;20561;-50
2022/05/08 10:47:58;;;;;;;19.23;6.15;;;21.70;76.40;;;;;;5051088;28;20174;-54
2022/05/08 10:50:24;;;;;;;13.07;6.10;;;21.80;76.60;;;;;;5051607;28;20182;-53
2022/05/08 10:52:50;;;;;;;23.88;6.72;;;21.90;72.90;;;;;;5051043;28;20182;-53
2022/05/08 10:55:20;;;;;;;15.48;6.03;;;21.80;75.40;;;;;;5051960;28;20185;-55
2022/05/08 10:57:48;;;;;;;15.73;6.10;;;21.80;73.70;;;;;;5051045;28;20162;-54
2022/05/08 11:00:17;;;;;;;11.95;6.40;;;21.90;74.40;;;;;;5051501;28;20194;-55
2022/05/08 11:02:51;;;;;;;14.50;6.00;;;22.30;69.70;;;;;;5050993;28;20233;-56
2022/05/08 11:05:16;;;;;;;13.68;6.20;;;22.30;67.70;;;;;;5050027;28;20205;-55
2022/05/08 11:07:52;;;;;;;10.48;5.13;;;22.60;66.40;;;;;;5051016;28;20209;-53
2022/05/08 11:10:26;;;;;;;16.27;6.40;;;23.10;64.90;;;;;;5051602;28;20204;-54
2022/05/08 11:12:59;;;;;;;13.88;6.53;;;23.30;64.40;;;;;;5051098;28;20208;-54
2022/05/08 11:15:25;;;;;;;12.88;5.82;;;23.50;64.20;;;;;;5051722;28;20177;-54
2022/05/08 11:18:07;;;;;;;10.82;5.50;;;23.80;62.60;;;;;;5050486;28;20629;-54
2022/05/08 11:20:36;;;;;;;14.40;5.63;;;23.90;61.90;;;;;;5051385;28;20666;-55
2022/05/08 11:23:05;;;;;;;9.80;5.30;;;24.40;59.00;;;;;;5050582;28;20257;-54
2022/05/08 11:25:32;;;;;;;11.00;5.07;;;24.70;58.80;;;;;;5050701;28;20184;-60
2022/05/08 11:27:58;;;;;;;11.27;5.57;;;26.30;55.10;;;;;;5049870;28;20186;-54
2022/05/08 11:30:43;;;;;;;13.18;5.80;;;27.70;51.90;;;;;;5050895;28;20179;-55
2022/05/08 11:36:11;;;;;;;20.20;6.03;;;28.60;47.10;;;;;;5050711;28;20666;-55
2022/05/08 11:38:52;;;;;;;16.48;5.30;;;29.10;46.90;;;;;;5050568;28;20163;-56
2022/05/08 11:41:24;;;;;;;15.93;6.05;;;30.00;46.50;;;;;;5050923;28;20167;-56
2022/05/08 11:43:54;;;;;;;20.42;6.38;;;30.10;45.50;;;;;;5053022;28;20245;-55
2022/05/08 11:46:32;;;;;;;19.40;5.50;;;30.80;44.90;;;;;;5053780;28;20239;-59
2022/05/08 11:48:58;;;;;;;17.83;6.00;;;31.30;43.70;;;;;;5053247;28;20162;-57
2022/05/08 11:51:24;;;;;;;9.23;5.47;;;31.80;43.80;;;;;;5052827;28;20190;-54
2022/05/08 11:53:52;;;;;;;9.20;5.40;;;32.40;42.60;;;;;;5053097;28;20186;-57
2022/05/08 11:56:29;;;;;;;12.80;5.38;;;33.20;41.70;;;;;;5052805;28;20632;-57
2022/05/08 11:59:06;;;;;;;12.00;5.50;;;33.60;40.90;;;;;;5052992;28;20178;-60
2022/05/08 12:01:34;;;;;;;15.10;6.03;;;33.70;39.90;;;;;;5053731;28;20166;-57
2022/05/08 12:04:34;;;;;;;12.95;5.90;;;32.30;41.50;;;;;;5054750;28;20214;-55
2022/05/08 12:06:59;;;;;;;11.07;5.60;;;30.40;44.20;;;;;;5054565;28;20205;-54
2022/05/08 12:09:27;;;;;;;14.40;5.78;;;29.10;45.70;;;;;;5054455;28;20190;-56
2022/05/08 12:11:52;;;;;;;8.18;5.15;;;29.90;45.50;;;;;;5053853;28;20232;-55
2022/05/08 12:14:29;;;;;;;9.90;4.75;;;30.90;43.10;;;;;;5054862;28;20187;-55
2022/05/08 12:17:02;;;;;;;10.73;5.72;;;31.20;42.40;;;;;;5054410;28;20198;-57
2022/05/08 12:19:29;;;;;;;9.40;4.35;;;31.30;42.60;;;;;;5054592;28;20174;-58
2022/05/08 12:21:55;;;;;;;13.40;4.88;;;31.50;41.30;;;;;;5054048;28;20194;-59
2022/05/08 12:24:21;;;;;;;10.85;4.80;;;31.00;41.80;;;;;;5054309;28;20230;-55
2022/05/08 12:26:48;;;;;;;15.55;4.90;;;30.90;43.10;;;;;;5052373;28;20187;-56
2022/05/08 12:29:18;;;;;;;13.43;5.03;;;32.50;41.70;;;;;;5053836;28;20259;-53
2022/05/08 12:31:45;;;;;;;14.02;4.78;;;34.10;38.70;;;;;;5053685;28;20264;-57
2022/05/08 12:34:12;;;;;;;9.27;4.38;;;34.70;38.20;;;;;;5053834;28;20219;-55
2022/05/08 12:36:41;;;;;;;8.10;4.70;;;35.20;37.20;;;;;;5053810;28;20182;-54
2022/05/08 12:39:09;;;;;;;10.32;4.78;;;34.20;37.20;;;;;;5054017;28;20178;-59
2022/05/08 12:41:36;;;;;;;14.77;5.13;;;34.00;37.40;;;;;;5054060;28;20303;-57
2022/05/08 12:44:02;;;;;;;9.00;4.32;;;34.50;36.60;;;;;;5053945;28;20236;-59
2022/05/08 12:46:28;;;;;;;9.27;4.50;;;34.60;35.40;;;;;;5053739;28;20190;-58
2022/05/08 12:49:01;;;;;;;8.35;4.35;;;33.90;36.90;;;;;;5052120;28;20635;-56
2022/05/08 12:51:27;;;;;;;10.07;4.47;;;33.90;38.00;;;;;;5053525;28;20198;-58
2022/05/08 12:53:53;;;;;;;8.77;4.60;;;35.10;36.50;;;;;;5052664;28;20260;-58
2022/05/08 12:56:19;;;;;;;6.70;4.07;;;36.00;35.80;;;;;;5052556;28;20652;-56
2022/05/08 13:01:30;;;;;;;6.25;3.65;;;33.50;36.40;;;;;;5053431;28;20259;-56
2022/05/08 13:03:55;;;;;;;10.05;4.22;;;33.50;37.20;;;;;;5052939;28;20330;-57